createdAt,value
2022-12-11T00:00:10.157Z,98188.44
2022-12-11T00:02:36.798Z,98199.06
2022-12-11T00:05:03.859Z,98194.97
2022-12-11T00:07:30.927Z,98198.06
2022-12-11T00:09:57.544Z,98193.25
2022-12-11T00:12:24.271Z,98189.97
2022-12-11T00:14:50.907Z,98186.88
2022-12-11T00:17:17.547Z,98190.41
2022-12-11T00:19:44.443Z,98180.31
2022-12-11T00:22:11.091Z,98190.81
2022-12-11T00:24:37.678Z,98180.31
2022-12-11T00:27:04.258Z,98180.06
2022-12-11T00:29:31.390Z,98188.38
2022-12-11T00:31:58.036Z,98183.50
2022-12-11T00:34:24.940Z,98186.63
2022-12-11T00:36:51.655Z,98180.44
2022-12-11T00:39:18.379Z,98184.69
2022-12-11T00:41:45.036Z,98178.19
2022-12-11T00:44:14.142Z,98180.00
2022-12-11T00:46:40.803Z,98178.53
2022-12-11T00:49:07.418Z,98179.38
2022-12-11T00:51:34.017Z,98189.47
2022-12-11T00:54:00.595Z,98188.34
2022-12-11T00:56:27.278Z,98197.56
2022-12-11T00:58:53.985Z,98204.41
2022-12-11T01:01:23.879Z,98202.13
2022-12-11T01:03:51.783Z,98200.91
2022-12-11T01:06:27.250Z,98205.03
2022-12-11T01:09:13.237Z,98207.06
2022-12-11T01:11:49.635Z,98216.72
2022-12-11T01:14:16.303Z,98204.53
2022-12-11T01:16:43.040Z,98203.81
2022-12-11T01:19:09.649Z,98217.19
2022-12-11T01:21:36.279Z,98215.53
2022-12-11T01:24:03.001Z,98215.25
2022-12-11T01:26:30.583Z,98210.31
2022-12-11T01:28:57.215Z,98213.50
2022-12-11T01:31:23.826Z,98209.19
2022-12-11T01:33:50.439Z,98205.38
2022-12-11T01:36:20.696Z,98205.19
2022-12-11T01:38:49.101Z,98203.94
2022-12-11T01:41:18.245Z,98201.69
2022-12-11T01:44:24.664Z,98198.91
2022-12-11T01:46:51.328Z,98200.00
2022-12-11T01:49:21.516Z,98200.50
2022-12-11T01:51:58.080Z,98202.13
2022-12-11T01:54:27.300Z,98202.09
2022-12-11T01:57:00.099Z,98194.22
2022-12-11T01:59:31.096Z,98195.88
2022-12-11T02:02:06.316Z,98188.59
2022-12-11T02:04:36.567Z,98188.38
2022-12-11T02:07:03.711Z,98189.91
2022-12-11T02:09:34.512Z,98187.09
2022-12-11T02:12:39.793Z,98199.66
2022-12-11T02:15:55.284Z,98186.00
2022-12-11T02:19:01.848Z,98184.63
2022-12-11T02:21:37.684Z,98189.78
2022-12-11T02:24:23.172Z,98184.44
2022-12-11T02:27:23.451Z,98184.41
2022-12-11T02:30:08.411Z,98186.00
2022-12-11T02:32:44.424Z,98181.22
2022-12-11T02:35:26.623Z,98193.84
2022-12-11T02:38:03.716Z,98189.03
2022-12-11T02:40:33.055Z,98192.53
2022-12-11T02:43:14.319Z,98200.56
2022-12-11T02:45:42.677Z,98188.94
2022-12-11T02:48:11.557Z,98199.50
2022-12-11T02:50:46.297Z,98197.50
2022-12-11T02:53:21.496Z,98199.34
2022-12-11T02:55:53.015Z,98200.00
2022-12-11T02:58:28.147Z,98202.41
2022-12-11T03:00:54.732Z,98193.91
2022-12-11T03:03:22.164Z,98196.50
2022-12-11T03:05:48.800Z,98206.19
2022-12-11T03:08:18.690Z,98203.59
2022-12-11T03:10:45.949Z,98198.84
2022-12-11T03:13:18.196Z,98196.31
2022-12-11T03:16:11.152Z,98190.03
2022-12-11T03:19:12.902Z,98187.78
2022-12-11T03:21:49.117Z,98197.63
2022-12-11T03:24:24.557Z,98194.06
2022-12-11T03:27:03.605Z,98192.19
2022-12-11T03:29:58.588Z,98196.53
2022-12-11T03:32:55.382Z,98190.25
2022-12-11T03:35:37.082Z,98191.25
2022-12-11T03:38:16.384Z,98196.63
2022-12-11T03:40:49.102Z,98192.03
2022-12-11T03:43:17.119Z,98191.50
2022-12-11T03:45:46.780Z,98187.97
2022-12-11T03:48:16.392Z,98180.28
2022-12-11T03:50:46.835Z,98181.78
2022-12-11T03:53:18.491Z,98181.78
2022-12-11T03:55:46.137Z,98181.88
2022-12-11T03:58:12.754Z,98184.56
2022-12-11T04:00:39.532Z,98187.50
2022-12-11T04:03:15.800Z,98180.38
2022-12-11T04:05:48.940Z,98186.09
2022-12-11T04:08:18.821Z,98181.03
2022-12-11T04:10:45.569Z,98185.44
2022-12-11T04:13:13.262Z,98184.72
2022-12-11T04:15:40.680Z,98185.28
2022-12-11T04:18:27.985Z,98179.88
2022-12-11T04:21:14.109Z,98181.88
2022-12-11T04:23:59.815Z,98178.88
2022-12-11T04:26:26.752Z,98190.75
2022-12-11T04:28:53.406Z,98187.72
2022-12-11T04:31:22.492Z,98188.88
2022-12-11T04:33:49.387Z,98185.28
2022-12-11T04:36:16.671Z,98191.34
2022-12-11T04:38:43.312Z,98185.19
2022-12-11T04:41:15.613Z,98180.91
2022-12-11T04:43:44.977Z,98179.28
2022-12-11T04:46:24.259Z,98176.72
2022-12-11T04:48:57.378Z,98177.03
2022-12-11T04:51:25.544Z,98171.97
2022-12-11T04:53:54.993Z,98172.69
2022-12-11T04:56:23.316Z,98174.38
2022-12-11T04:58:49.958Z,98175.09
2022-12-11T05:01:20.537Z,98176.44
2022-12-11T05:03:47.499Z,98177.41
2022-12-11T05:06:16.392Z,98172.41
2022-12-11T05:08:46.187Z,98175.31
2022-12-11T05:11:15.222Z,98171.09
2022-12-11T05:13:42.558Z,98173.56
2022-12-11T05:16:14.772Z,98172.59
2022-12-11T05:18:41.895Z,98174.16
2022-12-11T05:21:12.750Z,98172.53
2022-12-11T05:23:40.448Z,98164.09
2022-12-11T05:26:18.775Z,98154.22
2022-12-11T05:28:46.182Z,98159.44
2022-12-11T05:31:18.614Z,98162.41
2022-12-11T05:33:46.774Z,98151.88
2022-12-11T05:36:39.807Z,98165.09
2022-12-11T05:39:06.441Z,98168.94
2022-12-11T05:41:33.100Z,98166.72
2022-12-11T05:44:00.201Z,98171.34
2022-12-11T05:46:30.006Z,98160.69
2022-12-11T05:49:02.370Z,98166.25
2022-12-11T05:51:30.063Z,98164.50
2022-12-11T05:53:57.847Z,98170.25
2022-12-11T05:56:31.773Z,98164.22
2022-12-11T05:59:00.989Z,98174.63
2022-12-11T06:01:38.392Z,98169.72
2022-12-11T06:04:06.948Z,98171.31
2022-12-11T06:06:34.538Z,98172.34
2022-12-11T06:09:04.737Z,98162.16
2022-12-11T06:11:33.253Z,98161.06
2022-12-11T06:14:02.873Z,98158.91
2022-12-11T06:16:29.533Z,98161.72
2022-12-11T06:18:58.429Z,98155.47
2022-12-11T06:21:32.075Z,98154.50
2022-12-11T06:24:01.854Z,98150.88
2022-12-11T06:26:29.949Z,98145.03
2022-12-11T06:28:56.678Z,98146.03
2022-12-11T06:31:23.624Z,98147.59
2022-12-11T06:33:50.421Z,98138.53
2022-12-11T06:36:20.256Z,98132.25
2022-12-11T06:38:47.791Z,98140.13
2022-12-11T06:41:15.197Z,98142.03
2022-12-11T06:43:42.881Z,98142.56
2022-12-11T06:46:17.440Z,98147.84
2022-12-11T06:48:44.805Z,98143.13
2022-12-11T06:51:15.777Z,98148.09
2022-12-11T06:53:43.916Z,98142.72
2022-12-11T06:56:14.843Z,98150.63
2022-12-11T06:58:42.795Z,98154.41
2022-12-11T07:01:20.044Z,98147.97
2022-12-11T07:03:47.529Z,98155.91
2022-12-11T07:06:14.865Z,98142.56
2022-12-11T07:08:41.908Z,98145.19
2022-12-11T07:11:15.029Z,98150.13
2022-12-11T07:13:42.272Z,98150.06
2022-12-11T07:16:10.984Z,98154.06
2022-12-11T07:18:45.892Z,98160.53
2022-12-11T07:21:13.705Z,98159.91
2022-12-11T07:23:40.460Z,98159.56
2022-12-11T07:26:14.984Z,98158.84
2022-12-11T07:28:42.388Z,98154.81
2022-12-11T07:31:12.609Z,98170.13
2022-12-11T07:33:39.865Z,98165.34
2022-12-11T07:36:11.589Z,98173.31
2022-12-11T07:38:38.905Z,98165.19
2022-12-11T07:41:10.376Z,98160.13
2022-12-11T07:43:39.114Z,98167.22
2022-12-11T07:46:14.088Z,98167.31
2022-12-11T07:48:42.879Z,98161.25
2022-12-11T07:51:09.640Z,98170.06
2022-12-11T07:53:36.321Z,98161.72
2022-12-11T07:56:03.656Z,98166.41
2022-12-11T07:58:30.280Z,98167.00
2022-12-11T08:00:58.067Z,98171.31
2022-12-11T08:03:24.970Z,98167.69
2022-12-11T08:05:53.019Z,98175.88
2022-12-11T08:08:23.083Z,98168.00
2022-12-11T08:10:49.701Z,98173.41
2022-12-11T08:13:16.586Z,98172.84
2022-12-11T08:15:43.285Z,98175.84
2022-12-11T08:18:09.886Z,98187.13
2022-12-11T08:20:39.133Z,98185.19
2022-12-11T08:23:05.893Z,98184.53
2022-12-11T08:25:32.773Z,98180.66
2022-12-11T08:27:59.396Z,98175.09
2022-12-11T08:30:25.960Z,98174.56
2022-12-11T08:32:52.653Z,98180.03
2022-12-11T08:35:19.273Z,98176.59
2022-12-11T08:37:45.905Z,98172.31
2022-12-11T08:40:12.774Z,98173.34
2022-12-11T08:42:39.717Z,98167.81
2022-12-11T08:45:07.506Z,98162.75
2022-12-11T08:47:34.095Z,98162.22
2022-12-11T08:50:00.736Z,98167.78
2022-12-11T08:52:31.186Z,98172.88
2022-12-11T08:54:58.286Z,98166.75
2022-12-11T08:57:24.902Z,98169.00
2022-12-11T08:59:51.474Z,98176.47
2022-12-11T09:02:18.071Z,98172.13
2022-12-11T09:04:44.729Z,98174.31
2022-12-11T09:07:12.294Z,98168.47
2022-12-11T09:09:38.953Z,98157.78
2022-12-11T09:12:05.933Z,98160.91
2022-12-11T09:14:32.554Z,98163.25
2022-12-11T09:16:59.217Z,98156.84
2022-12-11T09:19:31.877Z,98165.53
2022-12-11T09:21:58.937Z,98170.47
2022-12-11T09:24:25.558Z,98160.66
2022-12-11T09:26:52.157Z,98161.00
2022-12-11T09:29:18.826Z,98168.53
2022-12-11T09:31:46.738Z,98161.72
2022-12-11T09:34:14.221Z,98169.94
2022-12-11T09:36:44.188Z,98170.28
2022-12-11T09:39:13.514Z,98170.81
2022-12-11T09:42:09.619Z,98174.88
2022-12-11T09:44:57.602Z,98172.94
2022-12-11T09:47:38.505Z,98173.97
2022-12-11T09:50:11.227Z,98181.00
2022-12-11T09:52:56.931Z,98184.34
2022-12-11T09:55:27.229Z,98185.38
2022-12-11T09:58:07.943Z,98177.53
2022-12-11T10:00:47.486Z,98173.19
2022-12-11T10:03:29.143Z,98176.53
2022-12-11T10:06:33.591Z,98172.78
2022-12-11T10:09:25.370Z,98170.19
2022-12-11T10:12:48.338Z,98166.88
2022-12-11T10:15:33.027Z,98167.16
2022-12-11T10:18:04.852Z,98150.34
2022-12-11T10:20:39.035Z,98143.47
2022-12-11T10:23:20.230Z,98151.41
2022-12-11T10:26:20.007Z,98151.91
2022-12-11T10:28:47.298Z,98151.75
2022-12-11T10:31:19.112Z,98149.41
2022-12-11T10:34:03.560Z,98140.63
2022-12-11T10:36:40.036Z,98138.22
2022-12-11T10:39:16.434Z,98141.66
2022-12-11T10:41:46.311Z,98138.38
2022-12-11T10:44:20.550Z,98128.91
2022-12-11T10:46:49.768Z,98142.69
2022-12-11T10:49:30.081Z,98141.09
2022-12-11T10:52:01.329Z,98141.31
2022-12-11T10:54:33.512Z,98138.88
2022-12-11T10:57:02.907Z,98134.00
2022-12-11T10:59:41.110Z,98143.41
2022-12-11T11:02:27.234Z,98130.53
2022-12-11T11:04:57.356Z,98127.03
2022-12-11T11:07:28.184Z,98128.94
2022-12-11T11:10:10.229Z,98131.59
2022-12-11T11:12:44.376Z,98123.56
2022-12-11T11:15:23.058Z,98135.44
2022-12-11T11:17:56.062Z,98138.81
2022-12-11T11:20:29.871Z,98135.75
2022-12-11T11:23:01.365Z,98131.59
2022-12-11T11:25:32.454Z,98123.94
2022-12-11T11:28:04.129Z,98123.22
2022-12-11T11:30:40.575Z,98118.28
2022-12-11T11:33:25.674Z,98114.47
2022-12-11T11:36:05.640Z,98113.25
2022-12-11T11:38:41.534Z,98102.81
2022-12-11T11:41:21.307Z,98104.91
2022-12-11T11:43:54.135Z,98095.00
2022-12-11T11:46:55.056Z,98100.66
2022-12-11T11:50:06.647Z,98098.66
2022-12-11T11:52:44.111Z,98083.94
2022-12-11T11:55:22.361Z,98090.44
2022-12-11T11:58:19.257Z,98089.00
2022-12-11T12:00:46.054Z,98079.66
2022-12-11T12:03:19.700Z,98085.00
2022-12-11T12:05:57.363Z,98077.66
2022-12-11T12:09:00.226Z,98090.31
2022-12-11T12:12:05.873Z,98080.75
2022-12-11T12:14:52.879Z,98085.06
2022-12-11T12:17:55.680Z,98078.53
2022-12-11T12:21:00.714Z,98076.75
2022-12-11T12:23:58.391Z,98073.34
2022-12-11T12:26:31.851Z,98079.16
2022-12-11T12:29:39.356Z,98073.59
2022-12-11T12:32:39.204Z,98075.53
2022-12-11T12:35:34.751Z,98074.50
2022-12-11T12:38:11.518Z,98071.09
2022-12-11T12:41:22.691Z,98078.16
2022-12-11T12:44:13.137Z,98074.94
2022-12-11T12:47:09.748Z,98077.13
2022-12-11T12:49:44.930Z,98073.91
2022-12-11T12:52:24.327Z,98068.47
2022-12-11T12:55:14.969Z,98062.75
2022-12-11T12:57:48.248Z,98070.66
2022-12-11T13:00:38.484Z,98065.09
2022-12-11T13:03:20.249Z,98061.88
2022-12-11T13:06:05.055Z,98061.97
2022-12-11T13:08:48.683Z,98064.41
2022-12-11T13:11:20.947Z,98069.50
2022-12-11T13:14:02.767Z,98067.56
2022-12-11T13:16:39.417Z,98072.69
2022-12-11T13:19:25.271Z,98071.31
2022-12-11T13:22:20.291Z,98068.06
2022-12-11T13:24:53.041Z,98069.97
2022-12-11T13:27:25.611Z,98070.94
2022-12-11T13:30:15.773Z,98069.22
2022-12-11T13:33:15.890Z,98063.63
2022-12-11T13:35:42.847Z,98068.94
2022-12-11T13:38:21.050Z,98072.09
2022-12-11T13:40:54.548Z,98080.06
2022-12-11T13:43:27.302Z,98076.44
2022-12-11T13:45:59.875Z,98079.13
2022-12-11T13:48:39.185Z,98082.91
2022-12-11T13:51:06.945Z,98081.28
2022-12-11T13:53:33.785Z,98074.47
2022-12-11T13:56:06.944Z,98078.66
2022-12-11T13:58:37.839Z,98072.44
2022-12-11T14:01:22.728Z,98070.19
2022-12-11T14:04:00.744Z,98077.75
2022-12-11T14:06:29.393Z,98075.66
2022-12-11T14:09:00.608Z,98077.47
2022-12-11T14:11:32.257Z,98074.47
2022-12-11T14:14:02.067Z,98081.72
2022-12-11T14:16:29.538Z,98079.47
2022-12-11T14:19:06.207Z,98080.22
2022-12-11T14:21:33.059Z,98076.13
2022-12-11T14:24:03.567Z,98077.50
2022-12-11T14:26:34.242Z,98082.03
2022-12-11T14:29:02.600Z,98082.25
2022-12-11T14:31:36.221Z,98079.16
2022-12-11T14:34:11.801Z,98083.38
2022-12-11T14:36:41.035Z,98077.47
2022-12-11T14:39:18.579Z,98087.50
2022-12-11T14:42:08.876Z,98084.28
2022-12-11T14:45:09.304Z,98085.81
2022-12-11T14:47:44.139Z,98094.44
2022-12-11T14:50:33.033Z,98093.84
2022-12-11T14:53:12.673Z,98100.84
2022-12-11T14:55:41.153Z,98098.78
2022-12-11T14:58:19.811Z,98096.78
2022-12-11T15:01:01.339Z,98092.13
2022-12-11T15:03:38.245Z,98093.34
2022-12-11T15:06:28.823Z,98103.72
2022-12-11T15:08:56.423Z,98101.91
2022-12-11T15:11:30.911Z,98099.94
2022-12-11T15:14:00.939Z,98096.59
2022-12-11T15:16:32.664Z,98101.84
2022-12-11T15:19:00.094Z,98096.66
2022-12-11T15:21:32.857Z,98101.47
2022-12-11T15:24:04.267Z,98096.94
2022-12-11T15:26:57.512Z,98113.88
2022-12-11T15:29:37.417Z,98102.59
2022-12-11T15:32:18.937Z,98103.03
2022-12-11T15:34:59.709Z,98104.19
2022-12-11T15:37:36.469Z,98110.47
2022-12-11T15:40:04.693Z,98109.44
2022-12-11T15:42:39.661Z,98109.50
2022-12-11T15:45:12.050Z,98112.50
2022-12-11T15:47:38.818Z,98112.00
2022-12-11T15:50:28.048Z,98110.78
2022-12-11T15:52:56.560Z,98113.47
2022-12-11T15:55:26.846Z,98113.78
2022-12-11T15:57:58.564Z,98114.38
2022-12-11T16:00:27.408Z,98122.16
2022-12-11T16:02:55.528Z,98127.31
2022-12-11T16:05:22.346Z,98127.34
2022-12-11T16:07:52.020Z,98123.75
2022-12-11T16:10:20.166Z,98128.28
2022-12-11T16:12:47.217Z,98130.38
2022-12-11T16:15:23.048Z,98122.41
2022-12-11T16:17:50.536Z,98118.19
2022-12-11T16:20:17.320Z,98114.72
2022-12-11T16:22:44.543Z,98121.66
2022-12-11T16:25:11.716Z,98114.53
2022-12-11T16:27:38.532Z,98117.78
2022-12-11T16:30:07.371Z,98121.97
2022-12-11T16:32:34.264Z,98122.56
2022-12-11T16:35:01.040Z,98122.94
2022-12-11T16:37:27.880Z,98118.09
2022-12-11T16:39:54.501Z,98120.28
2022-12-11T16:42:21.181Z,98113.66
2022-12-11T16:44:51.798Z,98118.22
2022-12-11T16:47:18.421Z,98117.34
2022-12-11T16:49:45.134Z,98113.06
2022-12-11T16:52:15.355Z,98115.75
2022-12-11T16:54:45.585Z,98116.19
2022-12-11T16:57:12.180Z,98115.69
2022-12-11T16:59:38.796Z,98122.53
2022-12-11T17:02:06.288Z,98116.44
2022-12-11T17:04:32.896Z,98118.75
2022-12-11T17:06:59.516Z,98110.41
2022-12-11T17:09:26.093Z,98104.00
2022-12-11T17:11:52.708Z,98107.47
2022-12-11T17:14:20.150Z,98106.25
2022-12-11T17:16:47.990Z,98100.16
2022-12-11T17:19:15.120Z,98105.66
2022-12-11T17:21:44.717Z,98095.16
2022-12-11T17:24:13.660Z,98097.53
2022-12-11T17:26:40.445Z,98101.28
2022-12-11T17:29:07.400Z,98100.31
2022-12-11T17:31:34.083Z,98091.94
2022-12-11T17:34:01.049Z,98096.50
2022-12-11T17:36:27.865Z,98088.06
2022-12-11T17:38:54.541Z,98081.09
2022-12-11T17:41:21.757Z,98089.31
2022-12-11T17:43:53.372Z,98074.31
2022-12-11T17:46:21.136Z,98076.88
2022-12-11T17:48:48.764Z,98080.59
2022-12-11T17:51:21.744Z,98075.59
2022-12-11T17:53:48.375Z,98083.66
2022-12-11T17:56:18.761Z,98075.06
2022-12-11T17:58:45.374Z,98092.00
2022-12-11T18:01:15.017Z,98081.69
2022-12-11T18:03:42.237Z,98080.75
2022-12-11T18:06:13.596Z,98081.63
2022-12-11T18:08:41.465Z,98089.16
2022-12-11T18:11:13.068Z,98089.81
2022-12-11T18:13:39.808Z,98094.03
2022-12-11T18:16:22.309Z,98091.19
2022-12-11T18:18:50.166Z,98087.13
2022-12-11T18:21:24.951Z,98083.31
2022-12-11T18:23:52.503Z,98085.19
2022-12-11T18:26:20.087Z,98078.63
2022-12-11T18:28:49.175Z,98080.94
2022-12-11T18:31:16.909Z,98077.34
2022-12-11T18:33:44.802Z,98081.09
2022-12-11T18:36:14.167Z,98087.06
2022-12-11T18:38:42.355Z,98082.28
2022-12-11T18:41:11.551Z,98078.66
2022-12-11T18:43:38.231Z,98079.50
2022-12-11T18:46:07.867Z,98080.06
2022-12-11T18:48:34.707Z,98085.75
2022-12-11T18:51:01.403Z,98086.75
2022-12-11T18:53:27.991Z,98081.47
2022-12-11T18:55:59.995Z,98085.66
2022-12-11T18:58:27.039Z,98088.47
2022-12-11T19:00:53.701Z,98085.97
2022-12-11T19:03:20.298Z,98087.50
2022-12-11T19:05:46.963Z,98092.91
2022-12-11T19:08:13.830Z,98094.72
2022-12-11T19:10:45.699Z,98094.34
2022-12-11T19:13:13.790Z,98092.25
2022-12-11T19:15:43.970Z,98099.31
2022-12-11T19:18:11.273Z,98093.59
2022-12-11T19:20:49.187Z,98097.16
2022-12-11T19:23:18.176Z,98092.84
2022-12-11T19:25:48.668Z,98091.91
2022-12-11T19:28:16.280Z,98094.09
2022-12-11T19:30:48.921Z,98093.97
2022-12-11T19:33:16.945Z,98094.78
2022-12-11T19:35:44.053Z,98095.28
2022-12-11T19:38:12.714Z,98086.28
2022-12-11T19:40:41.901Z,98087.16
2022-12-11T19:43:09.119Z,98101.19
2022-12-11T19:45:36.655Z,98096.66
2022-12-11T19:48:03.468Z,98085.81
2022-12-11T19:50:30.102Z,98087.78
2022-12-11T19:52:56.764Z,98093.06
2022-12-11T19:55:23.333Z,98088.31
2022-12-11T19:57:49.974Z,98091.91
2022-12-11T20:00:17.009Z,98099.69
2022-12-11T20:02:43.728Z,98092.50
2022-12-11T20:05:11.196Z,98094.16
2022-12-11T20:07:38.608Z,98094.72
2022-12-11T20:10:06.203Z,98092.25
2022-12-11T20:12:32.807Z,98090.63
2022-12-11T20:14:59.393Z,98090.19
2022-12-11T20:17:27.519Z,98097.13
2022-12-11T20:19:54.162Z,98095.69
2022-12-11T20:22:20.796Z,98089.50
2022-12-11T20:24:54.191Z,98094.22
2022-12-11T20:27:20.750Z,98083.22
2022-12-11T20:29:47.326Z,98088.81
2022-12-11T20:32:14.508Z,98092.31
2022-12-11T20:34:41.222Z,98081.91
2022-12-11T20:37:08.204Z,98085.13
2022-12-11T20:39:35.515Z,98093.13
2022-12-11T20:42:04.682Z,98088.94
2022-12-11T20:44:32.282Z,98083.78
2022-12-11T20:46:59.120Z,98081.69
2022-12-11T20:49:25.739Z,98079.69
2022-12-11T20:51:52.364Z,98082.97
2022-12-11T20:54:19.099Z,98083.94
2022-12-11T20:56:45.820Z,98073.75
2022-12-11T20:59:13.534Z,98081.00
2022-12-11T21:01:40.365Z,98088.03
2022-12-11T21:04:07.012Z,98081.19
2022-12-11T21:06:36.836Z,98083.66
2022-12-11T21:09:08.928Z,98082.00
2022-12-11T21:11:35.549Z,98076.91
2022-12-11T21:14:03.353Z,98079.69
2022-12-11T21:16:30.336Z,98072.06
2022-12-11T21:18:58.013Z,98066.34
2022-12-11T21:21:26.008Z,98077.97
2022-12-11T21:23:52.854Z,98075.72
2022-12-11T21:26:19.915Z,98079.22
2022-12-11T21:28:46.599Z,98078.75
2022-12-11T21:31:17.291Z,98077.69
2022-12-11T21:33:44.711Z,98082.81
2022-12-11T21:36:13.159Z,98082.34
2022-12-11T21:38:41.588Z,98075.97
2022-12-11T21:41:15.500Z,98085.22
2022-12-11T21:44:19.279Z,98089.97
2022-12-11T21:46:30.615Z,98076.66
2022-12-11T21:48:57.391Z,98073.88
2022-12-11T21:51:36.871Z,98074.31
2022-12-11T21:54:07.225Z,98067.31
2022-12-11T21:56:33.921Z,98066.34
2022-12-11T21:59:01.430Z,98076.34
2022-12-11T22:01:33.219Z,98079.88
2022-12-11T22:03:59.854Z,98082.66
2022-12-11T22:06:26.923Z,98079.97
2022-12-11T22:08:53.547Z,98081.09
2022-12-11T22:11:23.869Z,98093.13
2022-12-11T22:13:50.508Z,98082.63
2022-12-11T22:16:17.400Z,98086.16
2022-12-11T22:18:44.122Z,98083.25
2022-12-11T22:21:10.814Z,98084.03
2022-12-11T22:23:39.293Z,98089.88
2022-12-11T22:26:16.328Z,98084.25
2022-12-11T22:28:43.036Z,98089.59
2022-12-11T22:31:12.521Z,98097.88
2022-12-11T22:33:39.403Z,98104.03
2022-12-11T22:36:06.511Z,98095.84
2022-12-11T22:38:34.644Z,98104.25
2022-12-11T22:41:02.937Z,98100.44
2022-12-11T22:43:29.512Z,98097.50
2022-12-11T22:45:56.145Z,98103.41
2022-12-11T22:48:27.120Z,98100.72
2022-12-11T22:50:54.648Z,98099.78
2022-12-11T22:53:23.044Z,98099.31
2022-12-11T22:55:49.688Z,98098.47
2022-12-11T22:58:21.609Z,98097.66
2022-12-11T23:00:48.947Z,98097.84
2022-12-11T23:03:15.835Z,98107.44
2022-12-11T23:05:43.319Z,98101.66
2022-12-11T23:08:10.142Z,98103.75
2022-12-11T23:10:40.386Z,98106.06
2022-12-11T23:13:09.045Z,98097.59
2022-12-11T23:15:36.224Z,98102.03
2022-12-11T23:18:03.033Z,98103.75
2022-12-11T23:20:29.760Z,98105.13
2022-12-11T23:22:56.537Z,98109.72
2022-12-11T23:25:23.212Z,98107.19
2022-12-11T23:27:49.771Z,98107.25
2022-12-11T23:30:16.335Z,98099.88
2022-12-11T23:32:42.923Z,98100.03
2022-12-11T23:35:09.918Z,98106.28
2022-12-11T23:37:36.820Z,98108.22
2022-12-11T23:40:05.350Z,98112.81
2022-12-11T23:42:33.184Z,98106.06
2022-12-11T23:45:07.465Z,98113.09
2022-12-11T23:47:34.148Z,98112.44
2022-12-11T23:50:00.741Z,98117.41
2022-12-11T23:52:27.328Z,98119.41
2022-12-11T23:54:55.200Z,98119.41
2022-12-11T23:57:21.800Z,98115.84
2022-12-11T23:59:48.348Z,98123.91
